sensor_id;sensor_type;location;lat;lon;timestamp;pressure;altitude;pressure_sealevel;temperature;humidity
52935;BME280;38802;50.198;19.796;2023-02-13T00:01:05;98037.30;;;0.61;87.58
52935;BME280;38802;50.198;19.796;2023-02-13T00:03:33;98026.84;;;0.63;87.48
52935;BME280;38802;50.198;19.796;2023-02-13T00:06:01;98022.39;;;0.63;87.38
52935;BME280;38802;50.198;19.796;2023-02-13T00:08:29;98022.58;;;0.62;87.36
52935;BME280;38802;50.198;19.796;2023-02-13T00:10:57;98029.79;;;0.60;87.45
52935;BME280;38802;50.198;19.796;2023-02-13T00:13:26;98027.36;;;0.62;87.56
52935;BME280;38802;50.198;19.796;2023-02-13T00:15:59;98032.48;;;0.62;87.70
52935;BME280;38802;50.198;19.796;2023-02-13T00:18:28;98034.56;;;0.61;87.58
52935;BME280;38802;50.198;19.796;2023-02-13T00:21:02;98027.19;;;0.62;87.84
52935;BME280;38802;50.198;19.796;2023-02-13T00:23:32;98026.31;;;0.64;87.75
52935;BME280;38802;50.198;19.796;2023-02-13T00:26:04;98026.98;;;0.64;87.85
52935;BME280;38802;50.198;19.796;2023-02-13T00:28:33;98029.22;;;0.64;87.67
52935;BME280;38802;50.198;19.796;2023-02-13T00:31:09;98020.33;;;0.64;88.04
52935;BME280;38802;50.198;19.796;2023-02-13T00:33:37;98021.17;;;0.65;88.25
52935;BME280;38802;50.198;19.796;2023-02-13T00:36:14;98020.30;;;0.65;88.40
52935;BME280;38802;50.198;19.796;2023-02-13T00:38:43;98019.77;;;0.67;88.58
52935;BME280;38802;50.198;19.796;2023-02-13T00:41:13;98016.02;;;0.67;88.64
52935;BME280;38802;50.198;19.796;2023-02-13T00:43:41;98020.77;;;0.69;88.61
52935;BME280;38802;50.198;19.796;2023-02-13T00:46:09;98026.37;;;0.71;88.83
52935;BME280;38802;50.198;19.796;2023-02-13T00:48:37;98023.95;;;0.73;88.84
52935;BME280;38802;50.198;19.796;2023-02-13T00:51:06;98023.43;;;0.74;88.93
52935;BME280;38802;50.198;19.796;2023-02-13T00:53:36;98015.35;;;0.76;89.01
52935;BME280;38802;50.198;19.796;2023-02-13T00:56:05;98009.66;;;0.78;89.20
52935;BME280;38802;50.198;19.796;2023-02-13T00:58:36;98006.21;;;0.80;89.31
52935;BME280;38802;50.198;19.796;2023-02-13T01:01:04;98002.27;;;0.81;89.30
52935;BME280;38802;50.198;19.796;2023-02-13T01:03:32;97999.15;;;0.84;89.62
52935;BME280;38802;50.198;19.796;2023-02-13T01:06:01;97995.18;;;0.86;89.46
52935;BME280;38802;50.198;19.796;2023-02-13T01:08:29;97994.46;;;0.89;89.61
52935;BME280;38802;50.198;19.796;2023-02-13T01:10:57;97991.89;;;0.90;89.52
52935;BME280;38802;50.198;19.796;2023-02-13T01:13:25;97994.44;;;0.91;89.69
52935;BME280;38802;50.198;19.796;2023-02-13T01:15:55;97989.27;;;0.93;89.75
52935;BME280;38802;50.198;19.796;2023-02-13T01:18:23;97989.08;;;0.95;90.00
52935;BME280;38802;50.198;19.796;2023-02-13T01:21:16;97981.52;;;0.96;89.84
52935;BME280;38802;50.198;19.796;2023-02-13T01:23:44;97980.95;;;1.00;90.32
52935;BME280;38802;50.198;19.796;2023-02-13T01:26:18;97975.65;;;1.00;90.27
52935;BME280;38802;50.198;19.796;2023-02-13T01:28:51;97976.67;;;1.00;90.16
52935;BME280;38802;50.198;19.796;2023-02-13T01:31:20;97976.13;;;1.02;90.21
52935;BME280;38802;50.198;19.796;2023-02-13T01:33:50;97977.83;;;1.02;90.08
52935;BME280;38802;50.198;19.796;2023-02-13T01:36:21;97973.86;;;1.04;90.22
52935;BME280;38802;50.198;19.796;2023-02-13T01:38:53;97971.95;;;1.06;90.48
52935;BME280;38802;50.198;19.796;2023-02-13T01:41:25;97966.11;;;1.07;90.67
52935;BME280;38802;50.198;19.796;2023-02-13T01:43:58;97965.41;;;1.08;90.62
52935;BME280;38802;50.198;19.796;2023-02-13T01:46:39;97959.90;;;1.09;90.89
52935;BME280;38802;50.198;19.796;2023-02-13T01:49:16;97959.91;;;1.09;90.92
52935;BME280;38802;50.198;19.796;2023-02-13T01:51:46;97958.00;;;1.10;91.05
52935;BME280;38802;50.198;19.796;2023-02-13T01:54:22;97956.14;;;1.09;90.98
52935;BME280;38802;50.198;19.796;2023-02-13T01:57:26;97954.05;;;1.11;91.29
52935;BME280;38802;50.198;19.796;2023-02-13T01:59:59;97948.36;;;1.13;91.51
52935;BME280;38802;50.198;19.796;2023-02-13T02:02:30;97944.98;;;1.11;91.51
52935;BME280;38802;50.198;19.796;2023-02-13T02:05:02;97945.13;;;1.12;91.70
52935;BME280;38802;50.198;19.796;2023-02-13T02:07:31;97947.71;;;1.11;91.42
52935;BME280;38802;50.198;19.796;2023-02-13T02:10:07;97947.68;;;1.13;91.63
52935;BME280;38802;50.198;19.796;2023-02-13T02:13:02;97946.33;;;1.12;91.67
52935;BME280;38802;50.198;19.796;2023-02-13T02:15:32;97944.95;;;1.13;91.80
52935;BME280;38802;50.198;19.796;2023-02-13T02:18:00;97940.83;;;1.14;91.78
52935;BME280;38802;50.198;19.796;2023-02-13T02:29:54;97932.21;;;1.17;91.93
52935;BME280;38802;50.198;19.796;2023-02-13T02:46:16;97930.11;;;1.19;92.36
52935;BME280;38802;50.198;19.796;2023-02-13T02:48:58;97927.55;;;1.19;92.10
52935;BME280;38802;50.198;19.796;2023-02-13T02:51:56;97929.39;;;1.21;92.13
52935;BME280;38802;50.198;19.796;2023-02-13T02:54:37;97927.15;;;1.22;92.50
52935;BME280;38802;50.198;19.796;2023-02-13T02:57:29;97928.84;;;1.23;92.42
52935;BME280;38802;50.198;19.796;2023-02-13T03:00:22;97926.77;;;1.23;92.46
52935;BME280;38802;50.198;19.796;2023-02-13T03:03:15;97927.11;;;1.24;92.57
52935;BME280;38802;50.198;19.796;2023-02-13T03:06:25;97931.41;;;1.23;92.56
52935;BME280;38802;50.198;19.796;2023-02-13T03:09:00;97932.80;;;1.22;92.64
52935;BME280;38802;50.198;19.796;2023-02-13T03:11:49;97929.92;;;1.20;92.65
52935;BME280;38802;50.198;19.796;2023-02-13T03:14:38;97929.07;;;1.20;92.62
52935;BME280;38802;50.198;19.796;2023-02-13T03:17:10;97933.98;;;1.22;92.91
52935;BME280;38802;50.198;19.796;2023-02-13T03:31:37;97937.38;;;1.24;93.40
52935;BME280;38802;50.198;19.796;2023-02-13T03:34:13;97940.95;;;1.25;93.30
52935;BME280;38802;50.198;19.796;2023-02-13T03:37:01;97939.76;;;1.25;93.43
52935;BME280;38802;50.198;19.796;2023-02-13T03:40:05;97940.27;;;1.25;93.31
52935;BME280;38802;50.198;19.796;2023-02-13T03:42:44;97942.95;;;1.29;93.59
52935;BME280;38802;50.198;19.796;2023-02-13T03:45:20;97941.91;;;1.29;93.48
52935;BME280;38802;50.198;19.796;2023-02-13T03:48:09;97942.44;;;1.28;93.60
52935;BME280;38802;50.198;19.796;2023-02-13T03:50:59;97940.55;;;1.29;93.82
52935;BME280;38802;50.198;19.796;2023-02-13T03:53:32;97940.73;;;1.28;93.93
52935;BME280;38802;50.198;19.796;2023-02-13T03:56:03;97948.95;;;1.27;93.79
52935;BME280;38802;50.198;19.796;2023-02-13T03:58:53;97951.17;;;1.28;93.55
52935;BME280;38802;50.198;19.796;2023-02-13T04:01:53;97954.07;;;1.29;93.72
52935;BME280;38802;50.198;19.796;2023-02-13T04:07:09;97958.17;;;1.31;93.56
52935;BME280;38802;50.198;19.796;2023-02-13T04:09:41;97958.16;;;1.31;93.65
52935;BME280;38802;50.198;19.796;2023-02-13T04:12:14;97956.10;;;1.32;93.49
52935;BME280;38802;50.198;19.796;2023-02-13T04:15:11;97955.55;;;1.34;93.74
52935;BME280;38802;50.198;19.796;2023-02-13T04:17:51;97954.35;;;1.34;93.47
52935;BME280;38802;50.198;19.796;2023-02-13T04:20:26;97948.69;;;1.35;93.66
52935;BME280;38802;50.198;19.796;2023-02-13T04:22:54;97946.60;;;1.36;93.80
52935;BME280;38802;50.198;19.796;2023-02-13T04:25:22;97947.30;;;1.35;93.73
52935;BME280;38802;50.198;19.796;2023-02-13T04:27:51;97943.36;;;1.36;93.84
52935;BME280;38802;50.198;19.796;2023-02-13T04:30:19;97941.30;;;1.36;93.95
52935;BME280;38802;50.198;19.796;2023-02-13T04:32:47;97939.56;;;1.37;94.01
52935;BME280;38802;50.198;19.796;2023-02-13T04:35:16;97939.21;;;1.37;93.95
52935;BME280;38802;50.198;19.796;2023-02-13T04:37:44;97939.02;;;1.38;94.00
52935;BME280;38802;50.198;19.796;2023-02-13T04:40:12;97938.34;;;1.38;94.07
52935;BME280;38802;50.198;19.796;2023-02-13T04:42:41;97949.14;;;1.37;94.21
52935;BME280;38802;50.198;19.796;2023-02-13T04:45:09;97953.26;;;1.37;94.04
52935;BME280;38802;50.198;19.796;2023-02-13T04:47:37;97949.85;;;1.37;93.96
52935;BME280;38802;50.198;19.796;2023-02-13T04:50:06;97945.71;;;1.38;94.15
52935;BME280;38802;50.198;19.796;2023-02-13T04:52:34;97942.61;;;1.39;94.22
52935;BME280;38802;50.198;19.796;2023-02-13T04:55:02;97941.41;;;1.39;94.39
52935;BME280;38802;50.198;19.796;2023-02-13T04:57:30;97945.38;;;1.38;94.24
52935;BME280;38802;50.198;19.796;2023-02-13T04:59:58;97944.48;;;1.39;94.25
52935;BME280;38802;50.198;19.796;2023-02-13T05:02:26;97940.23;;;1.38;94.34
52935;BME280;38802;50.198;19.796;2023-02-13T05:04:54;97942.45;;;1.38;94.28
52935;BME280;38802;50.198;19.796;2023-02-13T05:07:22;97941.45;;;1.37;94.51
52935;BME280;38802;50.198;19.796;2023-02-13T05:09:50;97942.84;;;1.36;94.37
52935;BME280;38802;50.198;19.796;2023-02-13T05:12:18;97943.35;;;1.36;94.57
52935;BME280;38802;50.198;19.796;2023-02-13T05:14:46;97944.20;;;1.36;94.52
52935;BME280;38802;50.198;19.796;2023-02-13T05:17:15;97943.02;;;1.36;94.40
52935;BME280;38802;50.198;19.796;2023-02-13T05:19:43;97939.58;;;1.36;94.38
52935;BME280;38802;50.198;19.796;2023-02-13T05:22:11;97939.77;;;1.35;94.45
52935;BME280;38802;50.198;19.796;2023-02-13T05:24:57;97936.83;;;1.37;94.63
52935;BME280;38802;50.198;19.796;2023-02-13T05:27:25;97936.85;;;1.36;94.70
52935;BME280;38802;50.198;19.796;2023-02-13T05:29:53;97937.06;;;1.34;94.82
52935;BME280;38802;50.198;19.796;2023-02-13T05:32:21;97939.82;;;1.33;94.65
52935;BME280;38802;50.198;19.796;2023-02-13T05:34:49;97938.56;;;1.36;94.64
52935;BME280;38802;50.198;19.796;2023-02-13T05:37:17;97940.10;;;1.36;94.72
52935;BME280;38802;50.198;19.796;2023-02-13T05:39:45;97943.00;;;1.36;94.80
52935;BME280;38802;50.198;19.796;2023-02-13T05:42:13;97942.30;;;1.37;94.89
52935;BME280;38802;50.198;19.796;2023-02-13T05:44:41;97941.23;;;1.39;94.87
52935;BME280;38802;50.198;19.796;2023-02-13T05:47:09;97939.88;;;1.38;94.81
52935;BME280;38802;50.198;19.796;2023-02-13T05:49:37;97941.56;;;1.40;94.83
52935;BME280;38802;50.198;19.796;2023-02-13T05:52:05;97951.14;;;1.40;94.83
52935;BME280;38802;50.198;19.796;2023-02-13T05:54:34;97955.08;;;1.41;94.76
52935;BME280;38802;50.198;19.796;2023-02-13T05:57:05;97952.81;;;1.42;94.86
52935;BME280;38802;50.198;19.796;2023-02-13T05:59:33;97958.29;;;1.43;94.95
52935;BME280;38802;50.198;19.796;2023-02-13T06:02:01;97961.52;;;1.44;94.77
52935;BME280;38802;50.198;19.796;2023-02-13T06:04:29;97961.31;;;1.46;94.74
52935;BME280;38802;50.198;19.796;2023-02-13T06:06:57;97958.38;;;1.47;94.75
52935;BME280;38802;50.198;19.796;2023-02-13T06:09:25;97956.49;;;1.47;94.90
52935;BME280;38802;50.198;19.796;2023-02-13T06:11:53;97959.80;;;1.45;95.12
52935;BME280;38802;50.198;19.796;2023-02-13T06:14:21;97961.89;;;1.43;94.93
52935;BME280;38802;50.198;19.796;2023-02-13T06:16:49;97958.30;;;1.42;95.05
52935;BME280;38802;50.198;19.796;2023-02-13T06:19:17;97961.08;;;1.41;95.01
52935;BME280;38802;50.198;19.796;2023-02-13T06:21:45;97955.59;;;1.40;94.86
52935;BME280;38802;50.198;19.796;2023-02-13T06:24:13;97958.86;;;1.40;94.97
52935;BME280;38802;50.198;19.796;2023-02-13T06:26:41;97965.52;;;1.40;94.87
52935;BME280;38802;50.198;19.796;2023-02-13T06:29:09;97967.42;;;1.40;94.96
52935;BME280;38802;50.198;19.796;2023-02-13T06:31:39;97966.55;;;1.41;94.93
52935;BME280;38802;50.198;19.796;2023-02-13T06:34:07;97966.04;;;1.41;94.91
52935;BME280;38802;50.198;19.796;2023-02-13T06:36:36;97970.33;;;1.40;95.08
52935;BME280;38802;50.198;19.796;2023-02-13T06:39:05;97973.08;;;1.40;94.99
52935;BME280;38802;50.198;19.796;2023-02-13T06:41:33;97975.64;;;1.40;94.98
52935;BME280;38802;50.198;19.796;2023-02-13T06:44:01;97973.05;;;1.41;95.12
52935;BME280;38802;50.198;19.796;2023-02-13T06:46:29;97973.55;;;1.42;95.13
52935;BME280;38802;50.198;19.796;2023-02-13T06:48:57;97972.70;;;1.41;95.04
52935;BME280;38802;50.198;19.796;2023-02-13T06:51:25;97976.45;;;1.43;95.11
52935;BME280;38802;50.198;19.796;2023-02-13T06:53:53;97980.33;;;1.46;95.13
52935;BME280;38802;50.198;19.796;2023-02-13T06:56:21;97977.06;;;1.46;95.08
52935;BME280;38802;50.198;19.796;2023-02-13T06:58:49;97980.65;;;1.47;95.29
52935;BME280;38802;50.198;19.796;2023-02-13T07:01:17;97977.58;;;1.47;95.24
52935;BME280;38802;50.198;19.796;2023-02-13T07:03:45;97980.82;;;1.47;95.23
52935;BME280;38802;50.198;19.796;2023-02-13T07:06:19;97981.48;;;1.48;95.31
52935;BME280;38802;50.198;19.796;2023-02-13T07:08:47;97984.58;;;1.47;95.24
52935;BME280;38802;50.198;19.796;2023-02-13T07:11:19;97986.44;;;1.49;95.30
52935;BME280;38802;50.198;19.796;2023-02-13T07:13:48;97988.81;;;1.49;95.34
52935;BME280;38802;50.198;19.796;2023-02-13T07:16:17;97988.77;;;1.52;95.39
52935;BME280;38802;50.198;19.796;2023-02-13T07:18:45;97990.05;;;1.57;95.29
52935;BME280;38802;50.198;19.796;2023-02-13T07:21:13;97995.02;;;1.56;95.40
52935;BME280;38802;50.198;19.796;2023-02-13T07:23:41;97990.75;;;1.56;95.28
52935;BME280;38802;50.198;19.796;2023-02-13T07:26:09;97990.04;;;1.57;95.30
52935;BME280;38802;50.198;19.796;2023-02-13T07:28:37;97984.36;;;1.59;95.25
52935;BME280;38802;50.198;19.796;2023-02-13T07:31:06;97978.34;;;1.60;95.23
52935;BME280;38802;50.198;19.796;2023-02-13T07:33:34;97979.50;;;1.62;95.30
52935;BME280;38802;50.198;19.796;2023-02-13T07:36:03;97975.84;;;1.65;95.41
52935;BME280;38802;50.198;19.796;2023-02-13T07:38:32;97973.05;;;1.68;95.40
52935;BME280;38802;50.198;19.796;2023-02-13T07:41:03;97969.40;;;1.70;95.27
52935;BME280;38802;50.198;19.796;2023-02-13T07:43:31;97963.88;;;1.72;95.55
52935;BME280;38802;50.198;19.796;2023-02-13T07:46:01;97966.95;;;1.75;95.47
52935;BME280;38802;50.198;19.796;2023-02-13T07:48:30;97969.66;;;1.76;95.40
52935;BME280;38802;50.198;19.796;2023-02-13T07:50:59;97969.28;;;1.78;95.35
52935;BME280;38802;50.198;19.796;2023-02-13T07:53:28;97960.36;;;1.78;95.24
52935;BME280;38802;50.198;19.796;2023-02-13T07:55:57;97957.75;;;1.80;95.51
52935;BME280;38802;50.198;19.796;2023-02-13T07:58:25;97958.04;;;1.83;95.59
52935;BME280;38802;50.198;19.796;2023-02-13T08:00:53;97955.71;;;1.88;95.36
52935;BME280;38802;50.198;19.796;2023-02-13T08:03:21;97957.13;;;1.94;95.44
52935;BME280;38802;50.198;19.796;2023-02-13T08:05:49;97958.35;;;2.01;95.48
52935;BME280;38802;50.198;19.796;2023-02-13T08:08:17;97957.86;;;2.08;95.59
52935;BME280;38802;50.198;19.796;2023-02-13T08:10:45;97958.70;;;2.17;95.46
52935;BME280;38802;50.198;19.796;2023-02-13T08:13:32;97954.91;;;2.26;95.76
52935;BME280;38802;50.198;19.796;2023-02-13T08:16:00;97956.61;;;2.35;95.75
52935;BME280;38802;50.198;19.796;2023-02-13T08:18:28;97954.77;;;2.41;95.72
52935;BME280;38802;50.198;19.796;2023-02-13T08:20:56;97958.79;;;2.44;95.42
52935;BME280;38802;50.198;19.796;2023-02-13T08:23:24;97960.48;;;2.46;95.25
52935;BME280;38802;50.198;19.796;2023-02-13T08:25:52;97962.26;;;2.50;95.45
52935;BME280;38802;50.198;19.796;2023-02-13T08:28:22;97969.17;;;2.48;95.26
52935;BME280;38802;50.198;19.796;2023-02-13T08:30:50;97969.87;;;2.47;95.30
52935;BME280;38802;50.198;19.796;2023-02-13T08:33:18;97974.70;;;2.46;95.38
52935;BME280;38802;50.198;19.796;2023-02-13T08:35:47;97969.71;;;2.47;95.20
52935;BME280;38802;50.198;19.796;2023-02-13T08:38:15;97965.30;;;2.45;95.12
52935;BME280;38802;50.198;19.796;2023-02-13T08:40:43;97964.30;;;2.43;95.10
52935;BME280;38802;50.198;19.796;2023-02-13T08:43:11;97967.20;;;2.44;95.08
52935;BME280;38802;50.198;19.796;2023-02-13T08:45:39;97962.92;;;2.43;95.08
52935;BME280;38802;50.198;19.796;2023-02-13T08:48:07;97963.42;;;2.44;95.25
52935;BME280;38802;50.198;19.796;2023-02-13T08:50:35;97959.17;;;2.50;95.03
52935;BME280;38802;50.198;19.796;2023-02-13T08:53:04;97959.25;;;2.54;95.05
52935;BME280;38802;50.198;19.796;2023-02-13T08:55:33;97959.23;;;2.55;94.77
52935;BME280;38802;50.198;19.796;2023-02-13T08:58:02;97959.90;;;2.56;95.00
52935;BME280;38802;50.198;19.796;2023-02-13T09:00:31;97955.73;;;2.58;94.90
52935;BME280;38802;50.198;19.796;2023-02-13T09:03:02;97951.76;;;2.60;95.08
52935;BME280;38802;50.198;19.796;2023-02-13T09:05:31;97953.03;;;2.65;95.06
52935;BME280;38802;50.198;19.796;2023-02-13T09:08:00;97962.63;;;2.65;95.01
52935;BME280;38802;50.198;19.796;2023-02-13T09:10:31;97962.77;;;2.67;94.96
52935;BME280;38802;50.198;19.796;2023-02-13T09:12:59;97955.23;;;2.66;94.82
52935;BME280;38802;50.198;19.796;2023-02-13T09:15:29;97958.60;;;2.68;94.86
52935;BME280;38802;50.198;19.796;2023-02-13T09:17:57;97952.79;;;2.75;94.56
52935;BME280;38802;50.198;19.796;2023-02-13T09:20:25;97954.59;;;2.78;94.69
52935;BME280;38802;50.198;19.796;2023-02-13T09:22:54;97956.27;;;2.72;94.65
52935;BME280;38802;50.198;19.796;2023-02-13T09:25:24;97955.46;;;2.71;94.78
52935;BME280;38802;50.198;19.796;2023-02-13T09:27:52;97953.22;;;2.71;94.59
52935;BME280;38802;50.198;19.796;2023-02-13T09:30:20;97953.53;;;2.72;94.66
52935;BME280;38802;50.198;19.796;2023-02-13T09:32:52;97951.98;;;2.72;94.75
52935;BME280;38802;50.198;19.796;2023-02-13T09:35:21;97954.46;;;2.76;94.60
52935;BME280;38802;50.198;19.796;2023-02-13T09:37:50;97956.17;;;2.76;94.40
52935;BME280;38802;50.198;19.796;2023-02-13T09:40:34;97950.95;;;2.79;94.64
52935;BME280;38802;50.198;19.796;2023-02-13T09:43:12;97955.02;;;2.81;94.52
52935;BME280;38802;50.198;19.796;2023-02-13T09:45:44;97959.87;;;2.87;94.59
52935;BME280;38802;50.198;19.796;2023-02-13T09:48:17;97962.45;;;2.87;94.40
52935;BME280;38802;50.198;19.796;2023-02-13T09:50:49;97965.36;;;2.87;94.33
52935;BME280;38802;50.198;19.796;2023-02-13T09:53:23;97962.11;;;2.86;94.42
52935;BME280;38802;50.198;19.796;2023-02-13T09:58:38;97963.21;;;2.83;94.14
52935;BME280;38802;50.198;19.796;2023-02-13T10:10:00;97950.59;;;2.94;94.17
52935;BME280;38802;50.198;19.796;2023-02-13T10:12:47;97945.04;;;2.96;94.11
52935;BME280;38802;50.198;19.796;2023-02-13T10:18:05;97924.37;;;2.99;94.19
52935;BME280;38802;50.198;19.796;2023-02-13T10:20:50;97930.25;;;3.04;94.05
52935;BME280;38802;50.198;19.796;2023-02-13T10:23:38;97928.45;;;3.08;94.05
52935;BME280;38802;50.198;19.796;2023-02-13T10:26:20;97927.29;;;3.14;94.08
52935;BME280;38802;50.198;19.796;2023-02-13T10:28:58;97923.71;;;3.19;94.02
52935;BME280;38802;50.198;19.796;2023-02-13T10:31:47;97918.36;;;3.20;93.78
52935;BME280;38802;50.198;19.796;2023-02-13T10:34:21;97913.88;;;3.21;93.75
52935;BME280;38802;50.198;19.796;2023-02-13T10:36:52;97912.02;;;3.20;93.76
52935;BME280;38802;50.198;19.796;2023-02-13T10:39:28;97912.27;;;3.23;93.88
52935;BME280;38802;50.198;19.796;2023-02-13T10:42:21;97907.09;;;3.24;93.98
52935;BME280;38802;50.198;19.796;2023-02-13T10:47:44;97899.48;;;3.32;93.49
52935;BME280;38802;50.198;19.796;2023-02-13T10:58:31;97896.67;;;3.01;93.19
52935;BME280;38802;50.198;19.796;2023-02-13T11:01:10;97895.17;;;2.99;93.12
52935;BME280;38802;50.198;19.796;2023-02-13T11:03:41;97897.38;;;2.94;93.33
52935;BME280;38802;50.198;19.796;2023-02-13T11:06:13;97890.02;;;2.93;93.56
52935;BME280;38802;50.198;19.796;2023-02-13T11:08:45;97888.05;;;2.90;93.32
52935;BME280;38802;50.198;19.796;2023-02-13T11:11:35;97890.36;;;2.86;93.01
52935;BME280;38802;50.198;19.796;2023-02-13T11:14:21;97886.00;;;2.82;93.39
52935;BME280;38802;50.198;19.796;2023-02-13T11:17:02;97878.81;;;2.81;93.11
52935;BME280;38802;50.198;19.796;2023-02-13T11:22:15;97878.23;;;2.83;93.26
52935;BME280;38802;50.198;19.796;2023-02-13T11:24:59;97884.17;;;2.80;93.20
52935;BME280;38802;50.198;19.796;2023-02-13T11:27:33;97885.63;;;2.76;93.46
52935;BME280;38802;50.198;19.796;2023-02-13T11:30:06;97886.05;;;2.73;93.37
52935;BME280;38802;50.198;19.796;2023-02-13T11:32:35;97886.45;;;2.71;93.35
52935;BME280;38802;50.198;19.796;2023-02-13T11:35:26;97887.33;;;2.71;93.26
52935;BME280;38802;50.198;19.796;2023-02-13T11:41:02;97887.81;;;2.72;93.53
52935;BME280;38802;50.198;19.796;2023-02-13T11:46:25;97886.86;;;2.76;93.45
52935;BME280;38802;50.198;19.796;2023-02-13T11:54:03;97881.11;;;2.79;93.61
52935;BME280;38802;50.198;19.796;2023-02-13T11:56:47;97879.11;;;2.83;93.84
52935;BME280;38802;50.198;19.796;2023-02-13T11:59:39;97870.84;;;2.85;93.74
52935;BME280;38802;50.198;19.796;2023-02-13T12:04:42;97865.56;;;2.90;93.89
52935;BME280;38802;50.198;19.796;2023-02-13T12:09:52;97861.36;;;2.86;93.70
52935;BME280;38802;50.198;19.796;2023-02-13T12:12:29;97851.98;;;2.83;93.76
52935;BME280;38802;50.198;19.796;2023-02-13T12:15:02;97841.05;;;2.81;93.91
52935;BME280;38802;50.198;19.796;2023-02-13T12:17:39;97843.23;;;2.84;93.90
52935;BME280;38802;50.198;19.796;2023-02-13T12:20:14;97838.95;;;2.83;93.80
52935;BME280;38802;50.198;19.796;2023-02-13T12:22:52;97842.88;;;2.84;93.83
52935;BME280;38802;50.198;19.796;2023-02-13T12:25:40;97851.26;;;2.85;93.70
52935;BME280;38802;50.198;19.796;2023-02-13T12:28:19;97850.32;;;2.82;93.86
52935;BME280;38802;50.198;19.796;2023-02-13T12:36:35;97844.45;;;2.70;93.82
52935;BME280;38802;50.198;19.796;2023-02-13T12:39:17;97843.15;;;2.67;93.86
52935;BME280;38802;50.198;19.796;2023-02-13T12:47:29;97836.52;;;2.65;93.83
52935;BME280;38802;50.198;19.796;2023-02-13T13:16:55;97842.09;;;2.75;94.01
52935;BME280;38802;50.198;19.796;2023-02-13T13:22:10;97833.52;;;2.74;93.87
52935;BME280;38802;50.198;19.796;2023-02-13T13:27:23;97830.30;;;2.79;94.09
52935;BME280;38802;50.198;19.796;2023-02-13T13:32:31;97824.01;;;2.83;94.03
52935;BME280;38802;50.198;19.796;2023-02-13T13:35:00;97824.46;;;2.86;94.37
52935;BME280;38802;50.198;19.796;2023-02-13T13:38:04;97828.76;;;2.86;93.96
52935;BME280;38802;50.198;19.796;2023-02-13T13:40:55;97831.20;;;2.84;93.91
52935;BME280;38802;50.198;19.796;2023-02-13T13:46:46;97826.14;;;2.87;94.28
52935;BME280;38802;50.198;19.796;2023-02-13T13:49:47;97828.19;;;2.88;94.45
52935;BME280;38802;50.198;19.796;2023-02-13T13:52:26;97829.81;;;2.92;94.40
52935;BME280;38802;50.198;19.796;2023-02-13T13:54:57;97835.25;;;2.93;94.42
52935;BME280;38802;50.198;19.796;2023-02-13T14:02:45;97820.34;;;2.92;94.44
52935;BME280;38802;50.198;19.796;2023-02-13T14:05:31;97816.49;;;2.89;94.70
52935;BME280;38802;50.198;19.796;2023-02-13T14:08:02;97814.66;;;2.87;94.48
52935;BME280;38802;50.198;19.796;2023-02-13T14:13:00;97807.91;;;2.88;94.28
52935;BME280;38802;50.198;19.796;2023-02-13T14:22:47;97797.77;;;2.89;94.41
52935;BME280;38802;50.198;19.796;2023-02-13T14:25:23;97795.23;;;2.88;94.56
52935;BME280;38802;50.198;19.796;2023-02-13T14:27:59;97796.27;;;2.88;94.34
52935;BME280;38802;50.198;19.796;2023-02-13T14:30:29;97789.89;;;2.89;94.68
52935;BME280;38802;50.198;19.796;2023-02-13T14:33:01;97788.25;;;2.86;94.27
52935;BME280;38802;50.198;19.796;2023-02-13T14:35:33;97791.71;;;2.84;94.65
52935;BME280;38802;50.198;19.796;2023-02-13T14:38:04;97790.73;;;2.82;94.50
52935;BME280;38802;50.198;19.796;2023-02-13T14:45:53;97775.55;;;2.80;94.67
52935;BME280;38802;50.198;19.796;2023-02-13T14:48:31;97769.23;;;2.78;94.55
52935;BME280;38802;50.198;19.796;2023-02-13T14:51:00;97769.77;;;2.77;94.85
52935;BME280;38802;50.198;19.796;2023-02-13T14:53:34;97772.30;;;2.72;94.68
52935;BME280;38802;50.198;19.796;2023-02-13T14:56:11;97771.77;;;2.67;94.71
52935;BME280;38802;50.198;19.796;2023-02-13T14:58:49;97773.40;;;2.64;94.72
52935;BME280;38802;50.198;19.796;2023-02-13T15:01:25;97775.72;;;2.60;95.02
52935;BME280;38802;50.198;19.796;2023-02-13T15:03:58;97773.55;;;2.57;95.01
52935;BME280;38802;50.198;19.796;2023-02-13T15:06:32;97765.12;;;2.51;95.10
52935;BME280;38802;50.198;19.796;2023-02-13T15:17:36;97751.27;;;2.37;94.95
52935;BME280;38802;50.198;19.796;2023-02-13T15:20:07;97752.12;;;2.31;94.81
52935;BME280;38802;50.198;19.796;2023-02-13T15:22:46;97748.16;;;2.31;95.26
52935;BME280;38802;50.198;19.796;2023-02-13T15:25:28;97749.06;;;2.29;94.84
52935;BME280;38802;50.198;19.796;2023-02-13T15:27:58;97749.04;;;2.23;94.97
52935;BME280;38802;50.198;19.796;2023-02-13T15:30:27;97745.70;;;2.20;94.89
52935;BME280;38802;50.198;19.796;2023-02-13T15:32:57;97743.15;;;2.19;94.98
52935;BME280;38802;50.198;19.796;2023-02-13T15:35:32;97746.11;;;2.16;95.11
52935;BME280;38802;50.198;19.796;2023-02-13T15:38:19;97743.90;;;2.15;94.98
52935;BME280;38802;50.198;19.796;2023-02-13T15:40:49;97740.87;;;2.13;95.16
52935;BME280;38802;50.198;19.796;2023-02-13T15:43:47;97746.70;;;2.12;95.18
52935;BME280;38802;50.198;19.796;2023-02-13T15:46:20;97752.07;;;2.11;95.23
52935;BME280;38802;50.198;19.796;2023-02-13T15:48:47;97761.29;;;2.06;95.18
52935;BME280;38802;50.198;19.796;2023-02-13T15:51:23;97776.07;;;2.04;95.07
52935;BME280;38802;50.198;19.796;2023-02-13T15:53:54;97780.91;;;2.02;94.97
52935;BME280;38802;50.198;19.796;2023-02-13T15:56:22;97777.31;;;2.02;95.23
52935;BME280;38802;50.198;19.796;2023-02-13T15:58:50;97771.13;;;2.02;95.18
52935;BME280;38802;50.198;19.796;2023-02-13T16:01:17;97770.88;;;1.99;95.16
52935;BME280;38802;50.198;19.796;2023-02-13T16:03:49;97766.48;;;1.97;95.11
52935;BME280;38802;50.198;19.796;2023-02-13T16:06:19;97767.23;;;1.94;95.20
52935;BME280;38802;50.198;19.796;2023-02-13T16:08:54;97772.23;;;1.92;95.24
52935;BME280;38802;50.198;19.796;2023-02-13T16:11:34;97771.38;;;1.92;95.17